Deo Volente — PHFJ — position and weather

sailwx.info

Track history (hours):
 
Tides and Currents Weather Stations Pressure Air Temp Water Temp Dewpoint Dewpoint Depression Visibility Wind Speed Wind Dir Waves Ship Positions

Deo Volente

Last reported at 2016-Apr-29 22:22 UTC. Time now 2016-Apr-30 01:24 UTC.
Position N 36°48' E 026°31'.

Length 105 m; draft 5.3 m.

Type: Cargo ship. MMSI: 246518000.

Date/timePositionNaut miles runAvg speedWind from/ knotsBaromVisibWave heightAir tempDewpointWater temp
2016-Apr-29 22:22N 36°48' E 026°31'1617.3
2016-Apr-29 21:27N 36°56' E 026°14'1517.1
2016-Apr-29 20:33N 37°05' E 025°59'2016.9
2016-Apr-29 19:22N 37°13' E 025°36'1416.9
2016-Apr-29 18:34N 37°16' E 025°19'1716.8
2016-Apr-29 17:33N 37°19' E 024°58'47 5.7
2016-Apr-29 09:12N 37°37' E 024°03'1117.5
2016-Apr-29 08:33N 37°26' E 023°57'1817.5
2016-Apr-29 07:33N 37°11' E 023°46'1817.8
2016-Apr-29 06:31N 36°55' E 023°34'1717.9
2016-Apr-29 05:33N 36°40' E 023°24'1817.4
2016-Apr-29 04:33N 36°25' E 023°13'13717.1
2016-Apr-28 20:33N 36°50' E 020°26'1717.2
2016-Apr-28 19:33N 36°55' E 020°05'19617.2
2016-Apr-28 08:09N 37°48' E 016°07'1117.6
2016-Apr-28 07:33N 37°51' E 015°54'1717.0
2016-Apr-28 06:33N 37°60' E 015°36'1717.1
2016-Apr-28 05:33N 38°17' E 015°40'1817.5
2016-Apr-28 04:33N 38°30' E 015°25'34617.3
2016-Apr-27 08:32N 42°39' E 010°10'6716.1
2016-Apr-27 04:23N 43°14' E 008°52'6416.2
2016-Apr-27 00:24N 43°37' E 007°29'1011.2
2016-Apr-26 23:33N 43°42' E 007°17'0 0.1
2016-Apr-26 22:33N 43°42' E 007°17'0 0.0
2016-Apr-26 21:33N 43°42' E 007°17'0 0.0
2016-Apr-26 20:33N 43°42' E 007°17'0 0.0
2016-Apr-26 19:33N 43°42' E 007°17'0 0.0
2016-Apr-26 18:33N 43°42' E 007°17'0 0.0
2016-Apr-26 17:33N 43°42' E 007°17'1 0.6
2016-Apr-26 16:33N 43°41' E 007°17'3 2.9
2016-Apr-26 15:33N 43°38' E 007°16'6 6.0
2016-Apr-26 14:33N 43°33' E 007°12'7 6.6
2016-Apr-26 13:33N 43°27' E 007°08'7 6.9
2016-Apr-26 12:33N 43°22' E 007°02'27114.1
2016-Apr-25 17:23N 39°51' E 003°13'4 4.4
2016-Apr-25 16:33N 39°50' E 003°09'0 0.0
2016-Apr-25 15:33N 39°50' E 003°08'0 0.0
2016-Apr-25 14:33N 39°50' E 003°08'0 0.0
2016-Apr-25 13:33N 39°50' E 003°08'0 0.0
2016-Apr-25 12:21N 39°50' E 003°08'0 0.0
2016-Apr-25 11:33N 39°50' E 003°08'0 0.0
2016-Apr-25 10:33N 39°50' E 003°08'0 0.0
2016-Apr-25 09:33N 39°50' E 003°08'0 0.0
2016-Apr-25 08:33N 39°50' E 003°08'0 0.0
2016-Apr-25 07:33N 39°50' E 003°08'0 0.0
2016-Apr-25 06:33N 39°50' E 003°08'0 0.0
2016-Apr-25 05:33N 39°50' E 003°08'0 0.0
2016-Apr-25 04:33N 39°50' E 003°09'0 0.0
2016-Apr-25 03:33N 39°50' E 003°08'0 0.0
2016-Apr-25 02:33N 39°50' E 003°08'0 0.0
2016-Apr-25 01:33N 39°50' E 003°08'0 0.0
2016-Apr-25 00:33N 39°50' E 003°08'0 0.0
2016-Apr-24 23:33N 39°50' E 003°08'0 0.0
2016-Apr-24 22:33N 39°50' E 003°08'0 0.0
2016-Apr-24 21:33N 39°50' E 003°08'0 0.0
2016-Apr-24 20:33N 39°50' E 003°08'0 0.0
2016-Apr-24 19:33N 39°50' E 003°08'0 0.0
2016-Apr-24 18:33N 39°50' E 003°08'0 0.0
2016-Apr-24 17:33N 39°50' E 003°08'0 0.0
2016-Apr-24 16:33N 39°50' E 003°08'0 0.0
2016-Apr-24 15:33N 39°50' E 003°08'0 0.0
2016-Apr-24 14:33N 39°50' E 003°08'0 0.0
2016-Apr-24 13:33N 39°50' E 003°08'0 0.0
2016-Apr-24 12:33N 39°50' E 003°08'0 0.0
2016-Apr-24 11:33N 39°50' E 003°08'0 0.0
2016-Apr-24 10:33N 39°50' E 003°08'0 0.0
2016-Apr-24 04:33N 39°50' E 003°08'0 0.0
2016-Apr-24 03:33N 39°50' E 003°08'0 0.0
2016-Apr-24 02:33N 39°50' E 003°08'0 0.0
2016-Apr-24 01:33N 39°50' E 003°08'0 0.0
2016-Apr-24 00:33N 39°50' E 003°08'0 0.0
2016-Apr-23 23:33N 39°50' E 003°08'0 0.0
2016-Apr-23 22:33N 39°50' E 003°08'0 0.0
2016-Apr-23 21:33N 39°50' E 003°08'0 0.0
2016-Apr-23 20:33N 39°50' E 003°08'0 0.0
2016-Apr-23 19:33N 39°50' E 003°08'9 4.3
2016-Apr-23 17:29N 39°58' E 003°04'1314.3
2016-Apr-23 16:33N 39°54' E 002°48'1414.0
2016-Apr-23 15:33N 39°47' E 002°32'1414.2
2016-Apr-23 14:33N 39°38' E 002°18'1715.8
2016-Apr-23 13:30N 39°29' E 002°00'12315.5
2016-Apr-23 05:33N 38°05' E 000°05'3115.4
2016-Apr-23 03:33N 37°42' W 000°21'1515.1
2016-Apr-23 02:33N 37°31' W 000°34'1515.1
2016-Apr-23 01:33N 37°21' W 000°49'1515.0
2016-Apr-23 00:33N 37°11' W 001°03'21313.8
2016-Apr-22 09:05N 35°59' W 005°13'815.9
2016-Apr-22 08:34N 35°58' W 005°23'25013.0
2016-Apr-21 13:18N 38°02' W 009°55'1615.5
2016-Apr-21 12:15N 38°17' W 009°59'1115.6
2016-Apr-21 11:33N 38°28' W 010°01'1615.5
2016-Apr-21 10:33N 38°43' W 010°06'1615.7
2016-Apr-21 09:33N 38°59' W 010°06'1616.2
2016-Apr-21 08:33N 39°15' W 010°07'  
Track history (hours):
 
Tides and Currents Weather Stations Pressure Air Temp Water Temp Dewpoint Dewpoint Depression Visibility Wind Speed Wind Dir Waves Ship Positions

Deo Volente

Last reported at 2016-Apr-29 22:22 UTC. Time now 2016-Apr-30 01:24 UTC.
Position N 36°48' E 026°31'.

Length 105 m; draft 5.3 m.

Type: Cargo ship. MMSI: 246518000.

Date/timePositionNaut miles runAvg speedWind from/ knotsBaromVisibWave heightAir tempDewpointWater temp
2016-Apr-29 22:22N 36°48' E 026°31'1617.3
2016-Apr-29 21:27N 36°56' E 026°14'1517.1
2016-Apr-29 20:33N 37°05' E 025°59'2016.9
2016-Apr-29 19:22N 37°13' E 025°36'1416.9
2016-Apr-29 18:34N 37°16' E 025°19'1716.8
2016-Apr-29 17:33N 37°19' E 024°58'47 5.7
2016-Apr-29 09:12N 37°37' E 024°03'1117.5
2016-Apr-29 08:33N 37°26' E 023°57'1817.5
2016-Apr-29 07:33N 37°11' E 023°46'1817.8
2016-Apr-29 06:31N 36°55' E 023°34'1717.9
2016-Apr-29 05:33N 36°40' E 023°24'1817.4
2016-Apr-29 04:33N 36°25' E 023°13'13717.1
2016-Apr-28 20:33N 36°50' E 020°26'1717.2
2016-Apr-28 19:33N 36°55' E 020°05'19617.2
2016-Apr-28 08:09N 37°48' E 016°07'1117.6
2016-Apr-28 07:33N 37°51' E 015°54'1717.0
2016-Apr-28 06:33N 37°60' E 015°36'1717.1
2016-Apr-28 05:33N 38°17' E 015°40'1817.5
2016-Apr-28 04:33N 38°30' E 015°25'34617.3
2016-Apr-27 08:32N 42°39' E 010°10'6716.1
2016-Apr-27 04:23N 43°14' E 008°52'6416.2
2016-Apr-27 00:24N 43°37' E 007°29'1011.2
2016-Apr-26 23:33N 43°42' E 007°17'0 0.1
2016-Apr-26 22:33N 43°42' E 007°17'0 0.0
2016-Apr-26 21:33N 43°42' E 007°17'0 0.0
2016-Apr-26 20:33N 43°42' E 007°17'0 0.0
2016-Apr-26 19:33N 43°42' E 007°17'0 0.0
2016-Apr-26 18:33N 43°42' E 007°17'0 0.0
2016-Apr-26 17:33N 43°42' E 007°17'1 0.6
2016-Apr-26 16:33N 43°41' E 007°17'3 2.9
2016-Apr-26 15:33N 43°38' E 007°16'6 6.0
2016-Apr-26 14:33N 43°33' E 007°12'7 6.6
2016-Apr-26 13:33N 43°27' E 007°08'7 6.9
2016-Apr-26 12:33N 43°22' E 007°02'27114.1
2016-Apr-25 17:23N 39°51' E 003°13'4 4.4
2016-Apr-25 16:33N 39°50' E 003°09'0 0.0
2016-Apr-25 15:33N 39°50' E 003°08'0 0.0
2016-Apr-25 14:33N 39°50' E 003°08'0 0.0
2016-Apr-25 13:33N 39°50' E 003°08'0 0.0
2016-Apr-25 12:21N 39°50' E 003°08'0 0.0
2016-Apr-25 11:33N 39°50' E 003°08'0 0.0
2016-Apr-25 10:33N 39°50' E 003°08'0 0.0
2016-Apr-25 09:33N 39°50' E 003°08'0 0.0
2016-Apr-25 08:33N 39°50' E 003°08'0 0.0
2016-Apr-25 07:33N 39°50' E 003°08'0 0.0
2016-Apr-25 06:33N 39°50' E 003°08'0 0.0
2016-Apr-25 05:33N 39°50' E 003°08'0 0.0
2016-Apr-25 04:33N 39°50' E 003°09'0 0.0
2016-Apr-25 03:33N 39°50' E 003°08'0 0.0
2016-Apr-25 02:33N 39°50' E 003°08'0 0.0
2016-Apr-25 01:33N 39°50' E 003°08'0 0.0
2016-Apr-25 00:33N 39°50' E 003°08'0 0.0
2016-Apr-24 23:33N 39°50' E 003°08'0 0.0
2016-Apr-24 22:33N 39°50' E 003°08'0 0.0
2016-Apr-24 21:33N 39°50' E 003°08'0 0.0
2016-Apr-24 20:33N 39°50' E 003°08'0 0.0
2016-Apr-24 19:33N 39°50' E 003°08'0 0.0
2016-Apr-24 18:33N 39°50' E 003°08'0 0.0
2016-Apr-24 17:33N 39°50' E 003°08'0 0.0
2016-Apr-24 16:33N 39°50' E 003°08'0 0.0
2016-Apr-24 15:33N 39°50' E 003°08'0 0.0
2016-Apr-24 14:33N 39°50' E 003°08'0 0.0
2016-Apr-24 13:33N 39°50' E 003°08'0 0.0
2016-Apr-24 12:33N 39°50' E 003°08'0 0.0
2016-Apr-24 11:33N 39°50' E 003°08'0 0.0
2016-Apr-24 10:33N 39°50' E 003°08'0 0.0
2016-Apr-24 04:33N 39°50' E 003°08'0 0.0
2016-Apr-24 03:33N 39°50' E 003°08'0 0.0
2016-Apr-24 02:33N 39°50' E 003°08'0 0.0
2016-Apr-24 01:33N 39°50' E 003°08'0 0.0
2016-Apr-24 00:33N 39°50' E 003°08'0 0.0
2016-Apr-23 23:33N 39°50' E 003°08'0 0.0
2016-Apr-23 22:33N 39°50' E 003°08'0 0.0
2016-Apr-23 21:33N 39°50' E 003°08'0 0.0
2016-Apr-23 20:33N 39°50' E 003°08'0 0.0
2016-Apr-23 19:33N 39°50' E 003°08'9 4.3
2016-Apr-23 17:29N 39°58' E 003°04'1314.3
2016-Apr-23 16:33N 39°54' E 002°48'1414.0
2016-Apr-23 15:33N 39°47' E 002°32'1414.2
2016-Apr-23 14:33N 39°38' E 002°18'1715.8
2016-Apr-23 13:30N 39°29' E 002°00'12315.5
2016-Apr-23 05:33N 38°05' E 000°05'3115.4
2016-Apr-23 03:33N 37°42' W 000°21'1515.1
2016-Apr-23 02:33N 37°31' W 000°34'1515.1
2016-Apr-23 01:33N 37°21' W 000°49'1515.0
2016-Apr-23 00:33N 37°11' W 001°03'21313.8
2016-Apr-22 09:05N 35°59' W 005°13'815.9
2016-Apr-22 08:34N 35°58' W 005°23'25013.0
2016-Apr-21 13:18N 38°02' W 009°55'1615.5
2016-Apr-21 12:15N 38°17' W 009°59'1115.6
2016-Apr-21 11:33N 38°28' W 010°01'1615.5
2016-Apr-21 10:33N 38°43' W 010°06'1615.7
2016-Apr-21 09:33N 38°59' W 010°06'1616.2
2016-Apr-21 08:33N 39°15' W 010°07'  

Dump ship's entire track history